sensor_id;sensor_type;location;lat;lon;timestamp;P1;durP1;ratioP1;P2;durP2;ratioP2
24483;SDS011;12643;51.620;7.548;2023-01-25T00:00:45;29.30;;;18.10;;
24483;SDS011;12643;51.620;7.548;2023-01-25T00:03:17;47.13;;;23.83;;
24483;SDS011;12643;51.620;7.548;2023-01-25T00:05:45;34.38;;;20.17;;
24483;SDS011;12643;51.620;7.548;2023-01-25T00:08:13;37.15;;;20.08;;
24483;SDS011;12643;51.620;7.548;2023-01-25T00:10:41;28.52;;;17.50;;
24483;SDS011;12643;51.620;7.548;2023-01-25T00:13:09;32.28;;;20.05;;
24483;SDS011;12643;51.620;7.548;2023-01-25T00:15:37;44.13;;;24.33;;
24483;SDS011;12643;51.620;7.548;2023-01-25T00:18:08;31.83;;;20.20;;
24483;SDS011;12643;51.620;7.548;2023-01-25T00:20:37;39.58;;;20.67;;
24483;SDS011;12643;51.620;7.548;2023-01-25T00:23:05;30.15;;;18.05;;
24483;SDS011;12643;51.620;7.548;2023-01-25T00:25:35;35.25;;;19.67;;
24483;SDS011;12643;51.620;7.548;2023-01-25T00:28:03;28.33;;;18.13;;
24483;SDS011;12643;51.620;7.548;2023-01-25T00:30:36;29.30;;;18.73;;
24483;SDS011;12643;51.620;7.548;2023-01-25T00:33:05;32.58;;;19.80;;
24483;SDS011;12643;51.620;7.548;2023-01-25T00:36:01;32.25;;;19.33;;
24483;SDS011;12643;51.620;7.548;2023-01-25T00:38:46;27.67;;;16.88;;
24483;SDS011;12643;51.620;7.548;2023-01-25T00:41:15;26.67;;;17.00;;
24483;SDS011;12643;51.620;7.548;2023-01-25T00:43:42;29.02;;;17.88;;
24483;SDS011;12643;51.620;7.548;2023-01-25T00:46:10;31.00;;;19.13;;
24483;SDS011;12643;51.620;7.548;2023-01-25T00:48:41;29.13;;;19.15;;
24483;SDS011;12643;51.620;7.548;2023-01-25T00:51:11;34.20;;;20.73;;
24483;SDS011;12643;51.620;7.548;2023-01-25T00:53:40;33.17;;;20.80;;
24483;SDS011;12643;51.620;7.548;2023-01-25T00:56:08;27.98;;;18.30;;
24483;SDS011;12643;51.620;7.548;2023-01-25T00:58:36;29.05;;;19.80;;
24483;SDS011;12643;51.620;7.548;2023-01-25T01:01:04;29.15;;;19.33;;
24483;SDS011;12643;51.620;7.548;2023-01-25T01:03:32;31.55;;;20.15;;
24483;SDS011;12643;51.620;7.548;2023-01-25T01:06:00;34.78;;;19.83;;
24483;SDS011;12643;51.620;7.548;2023-01-25T01:08:30;29.00;;;19.35;;
24483;SDS011;12643;51.620;7.548;2023-01-25T01:11:02;28.00;;;17.88;;
24483;SDS011;12643;51.620;7.548;2023-01-25T01:13:31;33.03;;;20.45;;
24483;SDS011;12643;51.620;7.548;2023-01-25T01:15:59;31.02;;;19.33;;
24483;SDS011;12643;51.620;7.548;2023-01-25T01:18:28;28.08;;;18.13;;
24483;SDS011;12643;51.620;7.548;2023-01-25T01:20:59;31.77;;;19.48;;
24483;SDS011;12643;51.620;7.548;2023-01-25T01:23:30;32.97;;;21.35;;
24483;SDS011;12643;51.620;7.548;2023-01-25T01:25:58;29.98;;;19.15;;
24483;SDS011;12643;51.620;7.548;2023-01-25T01:28:26;30.33;;;20.35;;
24483;SDS011;12643;51.620;7.548;2023-01-25T01:30:58;32.90;;;20.88;;
24483;SDS011;12643;51.620;7.548;2023-01-25T01:33:26;36.55;;;22.80;;
24483;SDS011;12643;51.620;7.548;2023-01-25T01:35:55;32.28;;;20.60;;
24483;SDS011;12643;51.620;7.548;2023-01-25T01:38:25;30.70;;;19.65;;
24483;SDS011;12643;51.620;7.548;2023-01-25T01:40:55;27.73;;;19.02;;
24483;SDS011;12643;51.620;7.548;2023-01-25T01:43:23;31.45;;;20.65;;
24483;SDS011;12643;51.620;7.548;2023-01-25T01:45:52;30.55;;;20.08;;
24483;SDS011;12643;51.620;7.548;2023-01-25T01:48:26;32.88;;;21.02;;
24483;SDS011;12643;51.620;7.548;2023-01-25T01:51:00;32.55;;;20.85;;
24483;SDS011;12643;51.620;7.548;2023-01-25T01:53:29;28.40;;;19.77;;
24483;SDS011;12643;51.620;7.548;2023-01-25T01:56:01;31.10;;;20.87;;
24483;SDS011;12643;51.620;7.548;2023-01-25T01:58:32;29.85;;;20.75;;
24483;SDS011;12643;51.620;7.548;2023-01-25T02:01:01;29.40;;;20.00;;
24483;SDS011;12643;51.620;7.548;2023-01-25T02:03:29;34.30;;;21.20;;
24483;SDS011;12643;51.620;7.548;2023-01-25T02:05:59;32.83;;;22.38;;
24483;SDS011;12643;51.620;7.548;2023-01-25T02:08:31;34.15;;;23.05;;
24483;SDS011;12643;51.620;7.548;2023-01-25T02:11:03;33.35;;;22.30;;
24483;SDS011;12643;51.620;7.548;2023-01-25T02:13:31;34.42;;;22.60;;
24483;SDS011;12643;51.620;7.548;2023-01-25T02:16:00;32.58;;;22.52;;
24483;SDS011;12643;51.620;7.548;2023-01-25T02:18:29;35.50;;;23.15;;
24483;SDS011;12643;51.620;7.548;2023-01-25T02:20:58;32.35;;;22.00;;
24483;SDS011;12643;51.620;7.548;2023-01-25T02:23:28;34.00;;;22.38;;
24483;SDS011;12643;51.620;7.548;2023-01-25T02:26:03;33.35;;;21.17;;
24483;SDS011;12643;51.620;7.548;2023-01-25T02:28:33;33.78;;;22.60;;
24483;SDS011;12643;51.620;7.548;2023-01-25T02:31:06;34.33;;;23.55;;
24483;SDS011;12643;51.620;7.548;2023-01-25T02:33:34;33.63;;;23.08;;
24483;SDS011;12643;51.620;7.548;2023-01-25T02:36:13;33.00;;;22.55;;
24483;SDS011;12643;51.620;7.548;2023-01-25T02:38:44;33.90;;;22.40;;
24483;SDS011;12643;51.620;7.548;2023-01-25T02:41:19;35.20;;;22.92;;
24483;SDS011;12643;51.620;7.548;2023-01-25T02:43:51;35.70;;;23.80;;
24483;SDS011;12643;51.620;7.548;2023-01-25T02:46:20;34.33;;;22.70;;
24483;SDS011;12643;51.620;7.548;2023-01-25T02:48:52;35.83;;;23.80;;
24483;SDS011;12643;51.620;7.548;2023-01-25T02:51:25;35.05;;;23.95;;
24483;SDS011;12643;51.620;7.548;2023-01-25T02:53:55;33.67;;;23.85;;
24483;SDS011;12643;51.620;7.548;2023-01-25T02:56:28;35.90;;;23.25;;
24483;SDS011;12643;51.620;7.548;2023-01-25T02:58:56;34.28;;;23.80;;
24483;SDS011;12643;51.620;7.548;2023-01-25T03:01:24;34.58;;;24.02;;
24483;SDS011;12643;51.620;7.548;2023-01-25T03:03:52;33.92;;;23.85;;
24483;SDS011;12643;51.620;7.548;2023-01-25T03:06:20;38.80;;;24.42;;
24483;SDS011;12643;51.620;7.548;2023-01-25T03:08:48;39.97;;;25.13;;
24483;SDS011;12643;51.620;7.548;2023-01-25T03:11:16;37.75;;;24.38;;
24483;SDS011;12643;51.620;7.548;2023-01-25T03:13:46;36.95;;;23.38;;
24483;SDS011;12643;51.620;7.548;2023-01-25T03:16:14;36.10;;;24.50;;
24483;SDS011;12643;51.620;7.548;2023-01-25T03:18:42;38.97;;;25.13;;
24483;SDS011;12643;51.620;7.548;2023-01-25T03:21:11;39.65;;;24.52;;
24483;SDS011;12643;51.620;7.548;2023-01-25T03:23:41;42.05;;;26.35;;
24483;SDS011;12643;51.620;7.548;2023-01-25T03:26:10;39.05;;;24.38;;
24483;SDS011;12643;51.620;7.548;2023-01-25T03:28:41;37.45;;;24.52;;
24483;SDS011;12643;51.620;7.548;2023-01-25T03:31:12;37.90;;;24.80;;
24483;SDS011;12643;51.620;7.548;2023-01-25T03:33:42;40.55;;;26.17;;
24483;SDS011;12643;51.620;7.548;2023-01-25T03:36:10;37.50;;;25.85;;
24483;SDS011;12643;51.620;7.548;2023-01-25T03:38:38;36.55;;;24.25;;
24483;SDS011;12643;51.620;7.548;2023-01-25T03:41:07;35.25;;;23.60;;
24483;SDS011;12643;51.620;7.548;2023-01-25T03:43:37;41.60;;;25.20;;
24483;SDS011;12643;51.620;7.548;2023-01-25T03:46:05;34.50;;;23.90;;
24483;SDS011;12643;51.620;7.548;2023-01-25T03:48:34;38.13;;;23.63;;
24483;SDS011;12643;51.620;7.548;2023-01-25T03:51:03;32.38;;;22.52;;
24483;SDS011;12643;51.620;7.548;2023-01-25T03:53:32;32.20;;;20.75;;
24483;SDS011;12643;51.620;7.548;2023-01-25T03:56:00;32.35;;;21.15;;
24483;SDS011;12643;51.620;7.548;2023-01-25T03:58:33;33.65;;;22.75;;
24483;SDS011;12643;51.620;7.548;2023-01-25T04:01:02;36.77;;;23.70;;
24483;SDS011;12643;51.620;7.548;2023-01-25T04:03:31;33.03;;;22.27;;
24483;SDS011;12643;51.620;7.548;2023-01-25T04:06:01;36.25;;;23.50;;
24483;SDS011;12643;51.620;7.548;2023-01-25T04:08:29;46.13;;;29.30;;
24483;SDS011;12643;51.620;7.548;2023-01-25T04:10:59;43.10;;;25.73;;
24483;SDS011;12643;51.620;7.548;2023-01-25T04:15:59;36.75;;;22.58;;
24483;SDS011;12643;51.620;7.548;2023-01-25T04:18:27;60.70;;;30.20;;
24483;SDS011;12643;51.620;7.548;2023-01-25T04:20:55;55.30;;;30.60;;
24483;SDS011;12643;51.620;7.548;2023-01-25T04:23:25;48.33;;;28.58;;
24483;SDS011;12643;51.620;7.548;2023-01-25T04:25:53;43.28;;;26.73;;
24483;SDS011;12643;51.620;7.548;2023-01-25T04:28:22;49.45;;;30.00;;
24483;SDS011;12643;51.620;7.548;2023-01-25T04:30:51;47.30;;;26.92;;
24483;SDS011;12643;51.620;7.548;2023-01-25T04:33:20;48.55;;;27.10;;
24483;SDS011;12643;51.620;7.548;2023-01-25T04:35:48;43.17;;;27.15;;
24483;SDS011;12643;51.620;7.548;2023-01-25T04:38:16;40.08;;;25.58;;
24483;SDS011;12643;51.620;7.548;2023-01-25T04:40:46;39.25;;;25.25;;
24483;SDS011;12643;51.620;7.548;2023-01-25T04:43:14;41.67;;;25.45;;
24483;SDS011;12643;51.620;7.548;2023-01-25T04:45:43;41.45;;;25.25;;
24483;SDS011;12643;51.620;7.548;2023-01-25T04:48:11;40.95;;;25.73;;
24483;SDS011;12643;51.620;7.548;2023-01-25T04:50:40;37.45;;;24.52;;
24483;SDS011;12643;51.620;7.548;2023-01-25T04:53:09;41.75;;;25.60;;
24483;SDS011;12643;51.620;7.548;2023-01-25T04:55:38;42.47;;;26.42;;
24483;SDS011;12643;51.620;7.548;2023-01-25T04:58:07;37.17;;;23.73;;
24483;SDS011;12643;51.620;7.548;2023-01-25T05:00:35;45.20;;;25.83;;
24483;SDS011;12643;51.620;7.548;2023-01-25T05:03:04;40.97;;;26.08;;
24483;SDS011;12643;51.620;7.548;2023-01-25T05:05:32;41.03;;;25.85;;
24483;SDS011;12643;51.620;7.548;2023-01-25T05:07:59;39.75;;;25.60;;
24483;SDS011;12643;51.620;7.548;2023-01-25T05:10:27;43.65;;;26.90;;
24483;SDS011;12643;51.620;7.548;2023-01-25T05:12:55;45.42;;;26.80;;
24483;SDS011;12643;51.620;7.548;2023-01-25T05:15:24;41.08;;;25.30;;
24483;SDS011;12643;51.620;7.548;2023-01-25T05:17:52;43.20;;;25.80;;
24483;SDS011;12643;51.620;7.548;2023-01-25T05:20:20;43.70;;;26.90;;
24483;SDS011;12643;51.620;7.548;2023-01-25T05:22:48;43.65;;;27.95;;
24483;SDS011;12643;51.620;7.548;2023-01-25T05:25:16;39.35;;;24.67;;
24483;SDS011;12643;51.620;7.548;2023-01-25T05:28:02;42.47;;;25.60;;
24483;SDS011;12643;51.620;7.548;2023-01-25T05:30:33;42.33;;;25.13;;
24483;SDS011;12643;51.620;7.548;2023-01-25T05:33:00;43.08;;;26.23;;
24483;SDS011;12643;51.620;7.548;2023-01-25T05:35:28;41.10;;;25.65;;
24483;SDS011;12643;51.620;7.548;2023-01-25T05:37:56;44.20;;;27.30;;
24483;SDS011;12643;51.620;7.548;2023-01-25T05:40:25;44.97;;;26.85;;
24483;SDS011;12643;51.620;7.548;2023-01-25T05:42:53;44.20;;;26.38;;
24483;SDS011;12643;51.620;7.548;2023-01-25T05:45:21;45.10;;;27.25;;
24483;SDS011;12643;51.620;7.548;2023-01-25T05:47:54;42.40;;;25.63;;
24483;SDS011;12643;51.620;7.548;2023-01-25T05:50:23;45.80;;;27.65;;
24483;SDS011;12643;51.620;7.548;2023-01-25T05:52:52;45.00;;;27.55;;
24483;SDS011;12643;51.620;7.548;2023-01-25T05:55:20;48.90;;;30.25;;
24483;SDS011;12643;51.620;7.548;2023-01-25T05:57:48;50.15;;;29.65;;
24483;SDS011;12643;51.620;7.548;2023-01-25T06:00:17;41.08;;;25.98;;
24483;SDS011;12643;51.620;7.548;2023-01-25T06:02:45;38.22;;;23.77;;
24483;SDS011;12643;51.620;7.548;2023-01-25T06:05:15;42.88;;;26.27;;
24483;SDS011;12643;51.620;7.548;2023-01-25T06:07:43;50.83;;;29.33;;
24483;SDS011;12643;51.620;7.548;2023-01-25T06:10:10;49.50;;;28.52;;
24483;SDS011;12643;51.620;7.548;2023-01-25T06:12:38;63.78;;;36.03;;
24483;SDS011;12643;51.620;7.548;2023-01-25T06:15:07;60.85;;;35.40;;
24483;SDS011;12643;51.620;7.548;2023-01-25T06:17:35;51.45;;;30.83;;
24483;SDS011;12643;51.620;7.548;2023-01-25T06:20:04;47.00;;;28.15;;
24483;SDS011;12643;51.620;7.548;2023-01-25T06:22:34;53.22;;;30.42;;
24483;SDS011;12643;51.620;7.548;2023-01-25T06:25:02;50.42;;;28.83;;
24483;SDS011;12643;51.620;7.548;2023-01-25T06:27:31;52.55;;;29.85;;
24483;SDS011;12643;51.620;7.548;2023-01-25T06:29:59;83.95;;;40.72;;
24483;SDS011;12643;51.620;7.548;2023-01-25T06:32:30;92.60;;;43.92;;
24483;SDS011;12643;51.620;7.548;2023-01-25T06:34:58;109.07;;;48.88;;
24483;SDS011;12643;51.620;7.548;2023-01-25T06:37:26;112.30;;;49.65;;
24483;SDS011;12643;51.620;7.548;2023-01-25T06:39:56;100.57;;;45.13;;
24483;SDS011;12643;51.620;7.548;2023-01-25T06:42:25;99.32;;;46.15;;
24483;SDS011;12643;51.620;7.548;2023-01-25T06:44:53;78.80;;;38.53;;
24483;SDS011;12643;51.620;7.548;2023-01-25T06:47:21;79.60;;;39.63;;
24483;SDS011;12643;51.620;7.548;2023-01-25T06:49:49;94.57;;;45.20;;
24483;SDS011;12643;51.620;7.548;2023-01-25T06:52:17;88.65;;;40.78;;
24483;SDS011;12643;51.620;7.548;2023-01-25T06:54:45;119.38;;;48.72;;
24483;SDS011;12643;51.620;7.548;2023-01-25T06:57:14;121.30;;;48.35;;
24483;SDS011;12643;51.620;7.548;2023-01-25T06:59:43;133.57;;;52.00;;
24483;SDS011;12643;51.620;7.548;2023-01-25T07:02:11;115.20;;;47.92;;
24483;SDS011;12643;51.620;7.548;2023-01-25T07:04:40;125.28;;;47.58;;
24483;SDS011;12643;51.620;7.548;2023-01-25T07:07:08;139.85;;;52.60;;
24483;SDS011;12643;51.620;7.548;2023-01-25T07:09:36;137.60;;;52.47;;
24483;SDS011;12643;51.620;7.548;2023-01-25T07:12:05;150.90;;;56.78;;
24483;SDS011;12643;51.620;7.548;2023-01-25T07:14:34;122.53;;;51.78;;
24483;SDS011;12643;51.620;7.548;2023-01-25T07:17:02;126.88;;;51.78;;
24483;SDS011;12643;51.620;7.548;2023-01-25T07:19:30;127.88;;;50.20;;
24483;SDS011;12643;51.620;7.548;2023-01-25T07:21:58;127.55;;;54.08;;
24483;SDS011;12643;51.620;7.548;2023-01-25T07:24:26;147.85;;;56.38;;
24483;SDS011;12643;51.620;7.548;2023-01-25T07:26:55;119.68;;;52.05;;
24483;SDS011;12643;51.620;7.548;2023-01-25T07:29:23;117.97;;;52.03;;
24483;SDS011;12643;51.620;7.548;2023-01-25T07:31:52;117.65;;;49.50;;
24483;SDS011;12643;51.620;7.548;2023-01-25T07:34:20;110.32;;;49.35;;
24483;SDS011;12643;51.620;7.548;2023-01-25T07:36:49;113.93;;;45.55;;
24483;SDS011;12643;51.620;7.548;2023-01-25T07:39:17;116.43;;;48.92;;
24483;SDS011;12643;51.620;7.548;2023-01-25T07:41:45;118.38;;;52.10;;
24483;SDS011;12643;51.620;7.548;2023-01-25T07:44:13;109.03;;;48.45;;
24483;SDS011;12643;51.620;7.548;2023-01-25T07:46:40;105.25;;;46.42;;
24483;SDS011;12643;51.620;7.548;2023-01-25T07:49:10;114.55;;;44.05;;
24483;SDS011;12643;51.620;7.548;2023-01-25T07:51:37;113.10;;;45.90;;
24483;SDS011;12643;51.620;7.548;2023-01-25T07:54:06;112.53;;;46.47;;
24483;SDS011;12643;51.620;7.548;2023-01-25T07:56:36;94.22;;;41.78;;
24483;SDS011;12643;51.620;7.548;2023-01-25T07:59:05;86.65;;;42.13;;
24483;SDS011;12643;51.620;7.548;2023-01-25T08:01:34;107.55;;;47.45;;
24483;SDS011;12643;51.620;7.548;2023-01-25T08:04:03;106.57;;;48.28;;
24483;SDS011;12643;51.620;7.548;2023-01-25T08:06:35;100.20;;;45.05;;
24483;SDS011;12643;51.620;7.548;2023-01-25T08:09:05;106.88;;;47.30;;
24483;SDS011;12643;51.620;7.548;2023-01-25T08:11:34;90.90;;;41.92;;
24483;SDS011;12643;51.620;7.548;2023-01-25T08:14:02;88.07;;;43.28;;
24483;SDS011;12643;51.620;7.548;2023-01-25T08:16:30;79.03;;;41.47;;
24483;SDS011;12643;51.620;7.548;2023-01-25T08:18:59;75.60;;;38.70;;
24483;SDS011;12643;51.620;7.548;2023-01-25T08:21:30;75.57;;;38.25;;
24483;SDS011;12643;51.620;7.548;2023-01-25T08:24:00;82.95;;;43.72;;
24483;SDS011;12643;51.620;7.548;2023-01-25T08:26:29;81.47;;;40.10;;
24483;SDS011;12643;51.620;7.548;2023-01-25T08:28:58;76.57;;;39.10;;
24483;SDS011;12643;51.620;7.548;2023-01-25T08:31:26;70.43;;;37.33;;
24483;SDS011;12643;51.620;7.548;2023-01-25T08:33:55;66.28;;;35.47;;
24483;SDS011;12643;51.620;7.548;2023-01-25T08:36:24;87.38;;;41.80;;
24483;SDS011;12643;51.620;7.548;2023-01-25T08:38:57;84.82;;;41.83;;
24483;SDS011;12643;51.620;7.548;2023-01-25T08:41:27;79.32;;;40.58;;
24483;SDS011;12643;51.620;7.548;2023-01-25T08:43:57;73.47;;;36.60;;
24483;SDS011;12643;51.620;7.548;2023-01-25T08:46:26;69.03;;;35.63;;
24483;SDS011;12643;51.620;7.548;2023-01-25T08:48:56;68.88;;;35.60;;
24483;SDS011;12643;51.620;7.548;2023-01-25T08:51:24;75.93;;;38.15;;
24483;SDS011;12643;51.620;7.548;2023-01-25T08:53:52;72.32;;;36.50;;
24483;SDS011;12643;51.620;7.548;2023-01-25T08:56:22;49.08;;;28.75;;
24483;SDS011;12643;51.620;7.548;2023-01-25T08:58:50;53.10;;;27.77;;
24483;SDS011;12643;51.620;7.548;2023-01-25T09:01:18;55.10;;;29.67;;
24483;SDS011;12643;51.620;7.548;2023-01-25T09:03:47;65.35;;;34.63;;
24483;SDS011;12643;51.620;7.548;2023-01-25T09:06:17;63.25;;;32.47;;
24483;SDS011;12643;51.620;7.548;2023-01-25T09:08:45;70.40;;;33.53;;
24483;SDS011;12643;51.620;7.548;2023-01-25T09:11:14;66.80;;;32.83;;
24483;SDS011;12643;51.620;7.548;2023-01-25T09:13:47;72.40;;;35.50;;
24483;SDS011;12643;51.620;7.548;2023-01-25T09:16:16;65.32;;;31.25;;
24483;SDS011;12643;51.620;7.548;2023-01-25T09:18:47;66.97;;;32.97;;
24483;SDS011;12643;51.620;7.548;2023-01-25T09:21:15;63.88;;;30.63;;
24483;SDS011;12643;51.620;7.548;2023-01-25T09:23:46;61.88;;;30.80;;
24483;SDS011;12643;51.620;7.548;2023-01-25T09:26:15;58.45;;;28.65;;
24483;SDS011;12643;51.620;7.548;2023-01-25T09:28:47;54.03;;;27.08;;
24483;SDS011;12643;51.620;7.548;2023-01-25T09:31:17;57.72;;;29.35;;
24483;SDS011;12643;51.620;7.548;2023-01-25T09:33:49;52.80;;;27.08;;
24483;SDS011;12643;51.620;7.548;2023-01-25T09:36:18;56.35;;;27.42;;
24483;SDS011;12643;51.620;7.548;2023-01-25T09:38:47;52.25;;;26.50;;
24483;SDS011;12643;51.620;7.548;2023-01-25T09:41:19;55.05;;;27.13;;
24483;SDS011;12643;51.620;7.548;2023-01-25T09:46:48;60.55;;;28.63;;
24483;SDS011;12643;51.620;7.548;2023-01-25T09:49:22;60.70;;;31.15;;
24483;SDS011;12643;51.620;7.548;2023-01-25T09:52:15;61.65;;;29.33;;
24483;SDS011;12643;51.620;7.548;2023-01-25T09:54:56;57.55;;;26.10;;
24483;SDS011;12643;51.620;7.548;2023-01-25T09:57:25;57.80;;;28.25;;
24483;SDS011;12643;51.620;7.548;2023-01-25T09:59:58;65.78;;;31.17;;
24483;SDS011;12643;51.620;7.548;2023-01-25T10:02:32;61.58;;;28.20;;
24483;SDS011;12643;51.620;7.548;2023-01-25T10:05:12;54.83;;;25.98;;
24483;SDS011;12643;51.620;7.548;2023-01-25T10:07:47;55.13;;;26.73;;
24483;SDS011;12643;51.620;7.548;2023-01-25T10:10:22;58.10;;;26.30;;
24483;SDS011;12643;51.620;7.548;2023-01-25T10:12:55;56.70;;;27.88;;
24483;SDS011;12643;51.620;7.548;2023-01-25T10:15:28;57.35;;;27.42;;
24483;SDS011;12643;51.620;7.548;2023-01-25T10:18:00;63.38;;;29.38;;
24483;SDS011;12643;51.620;7.548;2023-01-25T10:20:36;66.15;;;28.65;;
24483;SDS011;12643;51.620;7.548;2023-01-25T10:23:26;71.53;;;31.83;;
24483;SDS011;12643;51.620;7.548;2023-01-25T10:26:06;80.90;;;31.65;;
24483;SDS011;12643;51.620;7.548;2023-01-25T10:28:43;83.68;;;33.80;;
24483;SDS011;12643;51.620;7.548;2023-01-25T10:31:21;72.15;;;31.02;;
24483;SDS011;12643;51.620;7.548;2023-01-25T10:33:53;59.03;;;26.20;;
24483;SDS011;12643;51.620;7.548;2023-01-25T10:36:25;49.80;;;24.90;;
24483;SDS011;12643;51.620;7.548;2023-01-25T10:38:56;46.35;;;21.67;;
24483;SDS011;12643;51.620;7.548;2023-01-25T10:41:28;52.77;;;23.53;;
24483;SDS011;12643;51.620;7.548;2023-01-25T10:44:07;61.80;;;26.90;;
24483;SDS011;12643;51.620;7.548;2023-01-25T10:46:54;132.10;;;42.47;;
24483;SDS011;12643;51.620;7.548;2023-01-25T10:49:26;162.35;;;48.03;;
24483;SDS011;12643;51.620;7.548;2023-01-25T10:52:10;118.88;;;42.80;;
24483;SDS011;12643;51.620;7.548;2023-01-25T10:54:40;71.28;;;31.90;;
24483;SDS011;12643;51.620;7.548;2023-01-25T10:57:11;75.00;;;31.58;;
24483;SDS011;12643;51.620;7.548;2023-01-25T10:59:45;59.35;;;26.13;;
24483;SDS011;12643;51.620;7.548;2023-01-25T11:05:23;66.57;;;28.85;;
24483;SDS011;12643;51.620;7.548;2023-01-25T11:07:53;70.15;;;30.00;;
24483;SDS011;12643;51.620;7.548;2023-01-25T11:10:28;65.38;;;28.40;;
24483;SDS011;12643;51.620;7.548;2023-01-25T11:15:53;87.53;;;34.53;;
24483;SDS011;12643;51.620;7.548;2023-01-25T11:18:31;94.75;;;37.10;;
24483;SDS011;12643;51.620;7.548;2023-01-25T11:21:04;102.57;;;38.25;;
24483;SDS011;12643;51.620;7.548;2023-01-25T11:23:37;101.15;;;41.28;;
24483;SDS011;12643;51.620;7.548;2023-01-25T11:26:13;93.65;;;38.20;;
24483;SDS011;12643;51.620;7.548;2023-01-25T11:28:42;96.78;;;36.17;;
24483;SDS011;12643;51.620;7.548;2023-01-25T11:31:14;86.55;;;36.10;;
24483;SDS011;12643;51.620;7.548;2023-01-25T11:33:47;83.38;;;34.75;;
24483;SDS011;12643;51.620;7.548;2023-01-25T11:36:21;87.75;;;33.95;;
24483;SDS011;12643;51.620;7.548;2023-01-25T11:39:11;95.13;;;36.35;;
24483;SDS011;12643;51.620;7.548;2023-01-25T11:41:54;81.15;;;32.90;;
24483;SDS011;12643;51.620;7.548;2023-01-25T11:44:51;88.22;;;35.85;;
24483;SDS011;12643;51.620;7.548;2023-01-25T11:47:51;81.97;;;32.45;;
24483;SDS011;12643;51.620;7.548;2023-01-25T11:50:34;78.57;;;32.22;;
24483;SDS011;12643;51.620;7.548;2023-01-25T11:53:15;73.47;;;31.30;;
24483;SDS011;12643;51.620;7.548;2023-01-25T11:56:05;79.10;;;33.08;;
24483;SDS011;12643;51.620;7.548;2023-01-25T11:58:45;78.75;;;33.22;;
24483;SDS011;12643;51.620;7.548;2023-01-25T12:01:32;84.05;;;33.47;;
24483;SDS011;12643;51.620;7.548;2023-01-25T12:04:13;84.50;;;32.95;;
24483;SDS011;12643;51.620;7.548;2023-01-25T12:07:03;83.05;;;33.75;;
24483;SDS011;12643;51.620;7.548;2023-01-25T12:09:49;82.65;;;34.85;;
24483;SDS011;12643;51.620;7.548;2023-01-25T12:12:24;89.30;;;35.85;;
24483;SDS011;12643;51.620;7.548;2023-01-25T12:15:06;79.00;;;31.83;;
24483;SDS011;12643;51.620;7.548;2023-01-25T12:17:50;94.88;;;38.45;;
24483;SDS011;12643;51.620;7.548;2023-01-25T12:20:34;86.30;;;34.00;;
24483;SDS011;12643;51.620;7.548;2023-01-25T12:23:24;87.40;;;34.45;;
24483;SDS011;12643;51.620;7.548;2023-01-25T12:26:04;92.00;;;37.47;;
24483;SDS011;12643;51.620;7.548;2023-01-25T12:28:40;95.35;;;39.92;;
24483;SDS011;12643;51.620;7.548;2023-01-25T12:31:13;87.43;;;37.15;;
24483;SDS011;12643;51.620;7.548;2023-01-25T12:33:46;82.70;;;34.40;;
24483;SDS011;12643;51.620;7.548;2023-01-25T12:36:20;83.13;;;35.13;;
24483;SDS011;12643;51.620;7.548;2023-01-25T12:38:56;78.85;;;33.63;;
24483;SDS011;12643;51.620;7.548;2023-01-25T12:41:32;93.50;;;38.38;;
24483;SDS011;12643;51.620;7.548;2023-01-25T12:44:07;84.35;;;36.38;;
24483;SDS011;12643;51.620;7.548;2023-01-25T12:46:44;84.85;;;35.33;;
24483;SDS011;12643;51.620;7.548;2023-01-25T12:49:20;87.53;;;36.03;;
24483;SDS011;12643;51.620;7.548;2023-01-25T12:51:53;95.93;;;37.17;;
24483;SDS011;12643;51.620;7.548;2023-01-25T12:54:28;74.38;;;33.22;;
24483;SDS011;12643;51.620;7.548;2023-01-25T12:57:10;74.00;;;33.90;;
24483;SDS011;12643;51.620;7.548;2023-01-25T12:59:47;88.18;;;38.63;;
24483;SDS011;12643;51.620;7.548;2023-01-25T13:05:21;66.10;;;30.23;;
24483;SDS011;12643;51.620;7.548;2023-01-25T13:07:57;73.05;;;32.25;;
24483;SDS011;12643;51.620;7.548;2023-01-25T13:10:38;74.55;;;32.83;;
24483;SDS011;12643;51.620;7.548;2023-01-25T13:13:20;79.13;;;34.80;;
24483;SDS011;12643;51.620;7.548;2023-01-25T13:15:50;74.30;;;36.43;;
24483;SDS011;12643;51.620;7.548;2023-01-25T13:18:39;77.00;;;35.33;;
24483;SDS011;12643;51.620;7.548;2023-01-25T13:21:08;73.43;;;34.72;;
24483;SDS011;12643;51.620;7.548;2023-01-25T13:24:06;74.22;;;34.20;;
24483;SDS011;12643;51.620;7.548;2023-01-25T13:26:48;70.63;;;32.80;;
24483;SDS011;12643;51.620;7.548;2023-01-25T13:35:36;67.30;;;31.48;;
24483;SDS011;12643;51.620;7.548;2023-01-25T13:38:28;68.15;;;32.90;;
24483;SDS011;12643;51.620;7.548;2023-01-25T13:41:14;71.75;;;35.28;;
24483;SDS011;12643;51.620;7.548;2023-01-25T13:43:52;73.93;;;33.78;;
24483;SDS011;12643;51.620;7.548;2023-01-25T13:46:40;75.35;;;33.55;;
24483;SDS011;12643;51.620;7.548;2023-01-25T13:49:12;67.60;;;32.75;;
24483;SDS011;12643;51.620;7.548;2023-01-25T13:51:48;72.82;;;32.10;;
24483;SDS011;12643;51.620;7.548;2023-01-25T13:54:17;70.60;;;32.10;;
24483;SDS011;12643;51.620;7.548;2023-01-25T13:56:47;61.58;;;28.40;;
24483;SDS011;12643;51.620;7.548;2023-01-25T13:59:32;68.88;;;30.73;;
24483;SDS011;12643;51.620;7.548;2023-01-25T14:02:00;67.68;;;29.23;;
24483;SDS011;12643;51.620;7.548;2023-01-25T14:04:29;72.13;;;34.30;;
24483;SDS011;12643;51.620;7.548;2023-01-25T14:07:00;70.15;;;32.75;;
24483;SDS011;12643;51.620;7.548;2023-01-25T14:09:35;60.92;;;28.63;;
24483;SDS011;12643;51.620;7.548;2023-01-25T14:12:03;64.70;;;30.65;;
24483;SDS011;12643;51.620;7.548;2023-01-25T14:14:38;65.60;;;30.98;;
24483;SDS011;12643;51.620;7.548;2023-01-25T14:17:12;76.22;;;32.88;;
24483;SDS011;12643;51.620;7.548;2023-01-25T14:19:42;67.93;;;32.17;;
24483;SDS011;12643;51.620;7.548;2023-01-25T14:22:21;67.82;;;30.27;;
24483;SDS011;12643;51.620;7.548;2023-01-25T14:25:01;64.03;;;29.95;;
24483;SDS011;12643;51.620;7.548;2023-01-25T14:27:36;63.08;;;28.60;;
24483;SDS011;12643;51.620;7.548;2023-01-25T14:30:17;61.20;;;27.73;;
24483;SDS011;12643;51.620;7.548;2023-01-25T14:32:48;57.53;;;28.70;;
24483;SDS011;12643;51.620;7.548;2023-01-25T14:35:31;62.28;;;28.05;;
24483;SDS011;12643;51.620;7.548;2023-01-25T14:38:16;59.67;;;29.23;;
24483;SDS011;12643;51.620;7.548;2023-01-25T14:40:57;61.22;;;28.92;;
24483;SDS011;12643;51.620;7.548;2023-01-25T14:43:28;56.67;;;27.08;;
24483;SDS011;12643;51.620;7.548;2023-01-25T14:45:59;59.28;;;28.30;;
24483;SDS011;12643;51.620;7.548;2023-01-25T14:51:16;51.33;;;24.00;;
24483;SDS011;12643;51.620;7.548;2023-01-25T14:53:51;60.20;;;26.55;;
24483;SDS011;12643;51.620;7.548;2023-01-25T14:56:29;57.83;;;27.45;;
24483;SDS011;12643;51.620;7.548;2023-01-25T14:59:21;63.30;;;28.00;;
24483;SDS011;12643;51.620;7.548;2023-01-25T15:02:02;63.65;;;30.33;;
24483;SDS011;12643;51.620;7.548;2023-01-25T15:04:49;63.40;;;28.88;;
24483;SDS011;12643;51.620;7.548;2023-01-25T15:07:31;63.75;;;30.67;;
24483;SDS011;12643;51.620;7.548;2023-01-25T15:10:01;66.57;;;29.80;;
24483;SDS011;12643;51.620;7.548;2023-01-25T15:12:30;63.17;;;31.83;;